sensor_id;sensor_type;location;lat;lon;timestamp;temperature;humidity
69823;SHT31;57119;52.516;13.508;2023-01-15T00:01:22;8.54;99.24
69823;SHT31;57119;52.516;13.508;2023-01-15T00:03:48;8.68;98.65
69823;SHT31;57119;52.516;13.508;2023-01-15T00:06:15;8.73;98.56
69823;SHT31;57119;52.516;13.508;2023-01-15T00:08:40;8.75;98.41
69823;SHT31;57119;52.516;13.508;2023-01-15T00:11:06;8.73;98.62
69823;SHT31;57119;52.516;13.508;2023-01-15T00:13:31;8.75;98.20
69823;SHT31;57119;52.516;13.508;2023-01-15T00:16:04;8.79;97.80
69823;SHT31;57119;52.516;13.508;2023-01-15T00:18:30;8.76;98.09
69823;SHT31;57119;52.516;13.508;2023-01-15T00:21:00;8.81;97.76
69823;SHT31;57119;52.516;13.508;2023-01-15T00:23:26;8.85;97.89
69823;SHT31;57119;52.516;13.508;2023-01-15T00:26:20;8.83;97.71
69823;SHT31;57119;52.516;13.508;2023-01-15T00:29:05;8.83;97.62
69823;SHT31;57119;52.516;13.508;2023-01-15T00:31:32;8.86;97.87
69823;SHT31;57119;52.516;13.508;2023-01-15T00:33:58;8.92;97.04
69823;SHT31;57119;52.516;13.508;2023-01-15T00:36:23;8.98;97.16
69823;SHT31;57119;52.516;13.508;2023-01-15T00:38:50;8.89;97.25
69823;SHT31;57119;52.516;13.508;2023-01-15T00:41:15;8.85;97.52
69823;SHT31;57119;52.516;13.508;2023-01-15T00:43:40;8.92;97.27
69823;SHT31;57119;52.516;13.508;2023-01-15T00:46:06;8.93;97.15
69823;SHT31;57119;52.516;13.508;2023-01-15T00:48:33;8.95;97.31
69823;SHT31;57119;52.516;13.508;2023-01-15T00:50:58;9.00;97.12
69823;SHT31;57119;52.516;13.508;2023-01-15T00:53:24;9.03;96.83
69823;SHT31;57119;52.516;13.508;2023-01-15T00:55:49;9.08;96.66
69823;SHT31;57119;52.516;13.508;2023-01-15T00:58:15;9.09;96.76
69823;SHT31;57119;52.516;13.508;2023-01-15T01:00:40;9.13;96.87
69823;SHT31;57119;52.516;13.508;2023-01-15T01:03:05;9.13;96.58
69823;SHT31;57119;52.516;13.508;2023-01-15T01:05:31;9.19;96.37
69823;SHT31;57119;52.516;13.508;2023-01-15T01:07:56;9.17;95.99
69823;SHT31;57119;52.516;13.508;2023-01-15T01:10:24;9.17;96.05
69823;SHT31;57119;52.516;13.508;2023-01-15T01:12:49;9.20;96.02
69823;SHT31;57119;52.516;13.508;2023-01-15T01:15:20;9.26;95.71
69823;SHT31;57119;52.516;13.508;2023-01-15T01:17:46;9.26;95.69
69823;SHT31;57119;52.516;13.508;2023-01-15T01:20:13;9.29;95.72
69823;SHT31;57119;52.516;13.508;2023-01-15T01:22:39;9.31;95.85
69823;SHT31;57119;52.516;13.508;2023-01-15T01:25:05;9.33;95.77
69823;SHT31;57119;52.516;13.508;2023-01-15T01:27:31;9.33;96.18
69823;SHT31;57119;52.516;13.508;2023-01-15T01:29:56;9.33;95.71
69823;SHT31;57119;52.516;13.508;2023-01-15T01:32:22;9.36;95.78
69823;SHT31;57119;52.516;13.508;2023-01-15T01:34:47;9.38;95.88
69823;SHT31;57119;52.516;13.508;2023-01-15T01:37:12;9.43;95.62
69823;SHT31;57119;52.516;13.508;2023-01-15T01:39:38;9.47;95.32
69823;SHT31;57119;52.516;13.508;2023-01-15T01:42:10;9.43;96.03
69823;SHT31;57119;52.516;13.508;2023-01-15T01:47:07;9.57;95.00
69823;SHT31;57119;52.516;13.508;2023-01-15T01:49:34;9.58;95.55
69823;SHT31;57119;52.516;13.508;2023-01-15T01:52:05;9.58;95.00
69823;SHT31;57119;52.516;13.508;2023-01-15T01:54:34;9.65;94.75
69823;SHT31;57119;52.516;13.508;2023-01-15T01:57:01;9.65;94.91
69823;SHT31;57119;52.516;13.508;2023-01-15T01:59:27;9.61;95.45
69823;SHT31;57119;52.516;13.508;2023-01-15T02:01:53;9.55;96.05
69823;SHT31;57119;52.516;13.508;2023-01-15T02:04:20;9.44;96.52
69823;SHT31;57119;52.516;13.508;2023-01-15T02:06:46;9.40;97.24
69823;SHT31;57119;52.516;13.508;2023-01-15T02:09:12;9.40;96.90
69823;SHT31;57119;52.516;13.508;2023-01-15T02:11:37;9.37;97.54
69823;SHT31;57119;52.516;13.508;2023-01-15T02:16:56;9.24;98.23
69823;SHT31;57119;52.516;13.508;2023-01-15T02:19:30;9.24;98.58
69823;SHT31;57119;52.516;13.508;2023-01-15T02:25:12;9.09;99.69
69823;SHT31;57119;52.516;13.508;2023-01-15T02:27:43;9.10;99.96
69823;SHT31;57119;52.516;13.508;2023-01-15T02:33:11;9.00;99.99
69823;SHT31;57119;52.516;13.508;2023-01-15T02:35:44;8.98;99.99
69823;SHT31;57119;52.516;13.508;2023-01-15T02:38:14;8.95;99.99
69823;SHT31;57119;52.516;13.508;2023-01-15T02:40:41;8.95;99.99
69823;SHT31;57119;52.516;13.508;2023-01-15T02:43:08;8.96;99.99
69823;SHT31;57119;52.516;13.508;2023-01-15T02:45:38;8.88;99.99
69823;SHT31;57119;52.516;13.508;2023-01-15T02:48:14;8.89;99.99
69823;SHT31;57119;52.516;13.508;2023-01-15T02:50:47;8.79;99.99
69823;SHT31;57119;52.516;13.508;2023-01-15T02:53:18;8.78;99.99
69823;SHT31;57119;52.516;13.508;2023-01-15T02:55:48;8.78;99.99
69823;SHT31;57119;52.516;13.508;2023-01-15T02:58:22;8.76;99.99
69823;SHT31;57119;52.516;13.508;2023-01-15T03:00:51;8.76;99.99
69823;SHT31;57119;52.516;13.508;2023-01-15T03:03:42;8.76;99.99
69823;SHT31;57119;52.516;13.508;2023-01-15T03:06:20;8.73;99.99
69823;SHT31;57119;52.516;13.508;2023-01-15T03:08:49;8.75;99.99
69823;SHT31;57119;52.516;13.508;2023-01-15T03:11:16;8.73;99.99
69823;SHT31;57119;52.516;13.508;2023-01-15T03:14:03;8.75;99.99
69823;SHT31;57119;52.516;13.508;2023-01-15T03:16:39;8.72;99.99
69823;SHT31;57119;52.516;13.508;2023-01-15T03:19:26;8.71;99.99
69823;SHT31;57119;52.516;13.508;2023-01-15T03:24:50;8.67;99.99
69823;SHT31;57119;52.516;13.508;2023-01-15T03:27:17;8.67;99.99
69823;SHT31;57119;52.516;13.508;2023-01-15T03:29:49;8.68;99.99
69823;SHT31;57119;52.516;13.508;2023-01-15T03:32:16;8.72;99.99
69823;SHT31;57119;52.516;13.508;2023-01-15T03:34:43;8.67;99.99
69823;SHT31;57119;52.516;13.508;2023-01-15T03:37:09;8.72;99.99
69823;SHT31;57119;52.516;13.508;2023-01-15T03:39:35;8.71;99.99
69823;SHT31;57119;52.516;13.508;2023-01-15T03:42:36;8.71;99.99
69823;SHT31;57119;52.516;13.508;2023-01-15T03:45:24;8.65;99.99
69823;SHT31;57119;52.516;13.508;2023-01-15T03:48:00;8.71;99.99
69823;SHT31;57119;52.516;13.508;2023-01-15T03:53:12;8.68;99.99
69823;SHT31;57119;52.516;13.508;2023-01-15T03:55:54;8.67;99.99
69823;SHT31;57119;52.516;13.508;2023-01-15T04:01:09;8.67;99.99
69823;SHT31;57119;52.516;13.508;2023-01-15T04:03:36;8.69;99.99
69823;SHT31;57119;52.516;13.508;2023-01-15T04:06:02;8.68;99.99
69823;SHT31;57119;52.516;13.508;2023-01-15T04:08:31;8.71;99.99
69823;SHT31;57119;52.516;13.508;2023-01-15T04:10:59;8.79;99.99
69823;SHT31;57119;52.516;13.508;2023-01-15T04:13:24;8.75;99.99
69823;SHT31;57119;52.516;13.508;2023-01-15T04:15:50;8.78;99.99
69823;SHT31;57119;52.516;13.508;2023-01-15T04:18:16;8.75;99.99
69823;SHT31;57119;52.516;13.508;2023-01-15T04:20:43;8.60;99.99
69823;SHT31;57119;52.516;13.508;2023-01-15T04:23:09;8.36;99.99
69823;SHT31;57119;52.516;13.508;2023-01-15T04:25:35;8.06;99.99
69823;SHT31;57119;52.516;13.508;2023-01-15T04:28:00;7.90;99.99
69823;SHT31;57119;52.516;13.508;2023-01-15T04:30:26;7.76;99.99
69823;SHT31;57119;52.516;13.508;2023-01-15T04:32:51;7.65;99.99
69823;SHT31;57119;52.516;13.508;2023-01-15T04:35:17;7.44;99.99
69823;SHT31;57119;52.516;13.508;2023-01-15T04:37:43;7.31;99.74
69823;SHT31;57119;52.516;13.508;2023-01-15T04:40:09;7.11;99.63
69823;SHT31;57119;52.516;13.508;2023-01-15T04:42:55;6.90;98.59
69823;SHT31;57119;52.516;13.508;2023-01-15T04:45:39;6.64;98.80
69823;SHT31;57119;52.516;13.508;2023-01-15T04:48:04;6.50;98.13
69823;SHT31;57119;52.516;13.508;2023-01-15T04:50:30;6.41;98.14
69823;SHT31;57119;52.516;13.508;2023-01-15T04:52:55;6.35;97.78
69823;SHT31;57119;52.516;13.508;2023-01-15T04:55:20;6.22;98.05
69823;SHT31;57119;52.516;13.508;2023-01-15T04:57:48;6.20;97.76
69823;SHT31;57119;52.516;13.508;2023-01-15T05:00:14;6.10;96.36
69823;SHT31;57119;52.516;13.508;2023-01-15T05:02:40;6.00;97.18
69823;SHT31;57119;52.516;13.508;2023-01-15T05:05:06;5.94;97.17
69823;SHT31;57119;52.516;13.508;2023-01-15T05:07:31;5.89;96.90
69823;SHT31;57119;52.516;13.508;2023-01-15T05:09:57;5.86;97.44
69823;SHT31;57119;52.516;13.508;2023-01-15T05:12:22;5.87;97.56
69823;SHT31;57119;52.516;13.508;2023-01-15T05:14:48;5.86;97.41
69823;SHT31;57119;52.516;13.508;2023-01-15T05:17:13;5.85;97.02
69823;SHT31;57119;52.516;13.508;2023-01-15T05:19:38;5.87;96.53
69823;SHT31;57119;52.516;13.508;2023-01-15T05:22:04;5.83;96.98
69823;SHT31;57119;52.516;13.508;2023-01-15T05:24:30;5.83;97.60
69823;SHT31;57119;52.516;13.508;2023-01-15T05:26:55;5.91;96.21
69823;SHT31;57119;52.516;13.508;2023-01-15T05:29:22;5.86;97.29
69823;SHT31;57119;52.516;13.508;2023-01-15T05:31:47;5.85;96.83
69823;SHT31;57119;52.516;13.508;2023-01-15T05:34:13;5.81;97.23
69823;SHT31;57119;52.516;13.508;2023-01-15T05:36:38;5.87;96.60
69823;SHT31;57119;52.516;13.508;2023-01-15T05:39:04;5.86;97.20
69823;SHT31;57119;52.516;13.508;2023-01-15T05:41:29;5.87;96.86
69823;SHT31;57119;52.516;13.508;2023-01-15T05:44:14;5.86;96.37
69823;SHT31;57119;52.516;13.508;2023-01-15T05:46:41;5.89;97.23
69823;SHT31;57119;52.516;13.508;2023-01-15T05:49:10;5.87;96.65
69823;SHT31;57119;52.516;13.508;2023-01-15T05:51:37;5.89;96.44
69823;SHT31;57119;52.516;13.508;2023-01-15T05:54:03;5.91;96.51
69823;SHT31;57119;52.516;13.508;2023-01-15T05:56:29;5.94;96.74
69823;SHT31;57119;52.516;13.508;2023-01-15T05:58:54;5.91;96.59
69823;SHT31;57119;52.516;13.508;2023-01-15T06:01:20;5.91;96.18
69823;SHT31;57119;52.516;13.508;2023-01-15T06:03:46;5.89;97.05
69823;SHT31;57119;52.516;13.508;2023-01-15T06:06:14;5.90;96.94
69823;SHT31;57119;52.516;13.508;2023-01-15T06:08:40;5.94;96.42
69823;SHT31;57119;52.516;13.508;2023-01-15T06:11:05;5.96;96.37
69823;SHT31;57119;52.516;13.508;2023-01-15T06:13:35;5.93;95.62
69823;SHT31;57119;52.516;13.508;2023-01-15T06:16:00;5.94;96.06
69823;SHT31;57119;52.516;13.508;2023-01-15T06:18:26;5.93;95.76
69823;SHT31;57119;52.516;13.508;2023-01-15T06:20:51;5.90;96.66
69823;SHT31;57119;52.516;13.508;2023-01-15T06:23:18;5.93;95.96
69823;SHT31;57119;52.516;13.508;2023-01-15T06:25:44;5.93;95.97
69823;SHT31;57119;52.516;13.508;2023-01-15T06:28:10;5.91;96.22
69823;SHT31;57119;52.516;13.508;2023-01-15T06:30:37;5.94;95.47
69823;SHT31;57119;52.516;13.508;2023-01-15T06:33:03;5.87;95.25
69823;SHT31;57119;52.516;13.508;2023-01-15T06:35:28;5.91;95.65
69823;SHT31;57119;52.516;13.508;2023-01-15T06:37:54;5.93;95.77
69823;SHT31;57119;52.516;13.508;2023-01-15T06:40:19;5.93;95.62
69823;SHT31;57119;52.516;13.508;2023-01-15T06:42:45;5.94;95.79
69823;SHT31;57119;52.516;13.508;2023-01-15T06:45:39;5.89;96.29
69823;SHT31;57119;52.516;13.508;2023-01-15T06:48:24;5.91;96.08
69823;SHT31;57119;52.516;13.508;2023-01-15T06:50:49;5.83;95.91
69823;SHT31;57119;52.516;13.508;2023-01-15T06:53:15;5.80;96.18
69823;SHT31;57119;52.516;13.508;2023-01-15T06:55:40;5.80;96.69
69823;SHT31;57119;52.516;13.508;2023-01-15T06:58:06;5.74;97.08
69823;SHT31;57119;52.516;13.508;2023-01-15T07:00:31;5.79;97.26
69823;SHT31;57119;52.516;13.508;2023-01-15T07:03:00;5.80;97.19
69823;SHT31;57119;52.516;13.508;2023-01-15T07:05:26;5.79;97.48
69823;SHT31;57119;52.516;13.508;2023-01-15T07:07:52;5.76;97.85
69823;SHT31;57119;52.516;13.508;2023-01-15T07:10:17;5.79;98.34
69823;SHT31;57119;52.516;13.508;2023-01-15T07:12:43;5.74;98.40
69823;SHT31;57119;52.516;13.508;2023-01-15T07:15:09;5.70;98.82
69823;SHT31;57119;52.516;13.508;2023-01-15T07:17:34;5.65;99.26
69823;SHT31;57119;52.516;13.508;2023-01-15T07:19:59;5.67;99.19
69823;SHT31;57119;52.516;13.508;2023-01-15T07:22:25;5.66;99.26
69823;SHT31;57119;52.516;13.508;2023-01-15T07:24:50;5.63;99.64
69823;SHT31;57119;52.516;13.508;2023-01-15T07:27:16;5.62;99.27
69823;SHT31;57119;52.516;13.508;2023-01-15T07:29:41;5.59;99.35
69823;SHT31;57119;52.516;13.508;2023-01-15T07:32:07;5.65;99.30
69823;SHT31;57119;52.516;13.508;2023-01-15T07:34:32;5.60;99.17
69823;SHT31;57119;52.516;13.508;2023-01-15T07:36:58;5.66;99.63
69823;SHT31;57119;52.516;13.508;2023-01-15T07:39:23;5.66;99.14
69823;SHT31;57119;52.516;13.508;2023-01-15T07:41:48;5.59;99.27
69823;SHT31;57119;52.516;13.508;2023-01-15T07:44:32;5.59;99.54
69823;SHT31;57119;52.516;13.508;2023-01-15T07:47:21;5.69;99.37
69823;SHT31;57119;52.516;13.508;2023-01-15T07:50:08;5.63;98.49
69823;SHT31;57119;52.516;13.508;2023-01-15T07:52:34;5.69;98.22
69823;SHT31;57119;52.516;13.508;2023-01-15T07:54:59;5.65;98.38
69823;SHT31;57119;52.516;13.508;2023-01-15T07:57:25;5.69;98.58
69823;SHT31;57119;52.516;13.508;2023-01-15T07:59:51;5.73;98.81
69823;SHT31;57119;52.516;13.508;2023-01-15T08:02:16;5.63;98.67
69823;SHT31;57119;52.516;13.508;2023-01-15T08:04:42;5.70;98.61
69823;SHT31;57119;52.516;13.508;2023-01-15T08:07:07;5.65;98.50
69823;SHT31;57119;52.516;13.508;2023-01-15T08:09:33;5.66;98.55
69823;SHT31;57119;52.516;13.508;2023-01-15T08:11:59;5.67;98.63
69823;SHT31;57119;52.516;13.508;2023-01-15T08:14:44;5.70;98.48
69823;SHT31;57119;52.516;13.508;2023-01-15T08:17:28;5.70;98.56
69823;SHT31;57119;52.516;13.508;2023-01-15T08:19:53;5.60;98.65
69823;SHT31;57119;52.516;13.508;2023-01-15T08:22:19;5.66;97.80
69823;SHT31;57119;52.516;13.508;2023-01-15T08:24:44;5.66;98.12
69823;SHT31;57119;52.516;13.508;2023-01-15T08:27:11;5.67;98.14
69823;SHT31;57119;52.516;13.508;2023-01-15T08:29:40;5.71;97.93
69823;SHT31;57119;52.516;13.508;2023-01-15T08:32:06;5.65;98.18
69823;SHT31;57119;52.516;13.508;2023-01-15T08:34:31;5.66;98.15
69823;SHT31;57119;52.516;13.508;2023-01-15T08:36:56;5.73;98.08
69823;SHT31;57119;52.516;13.508;2023-01-15T08:39:24;5.73;97.93
69823;SHT31;57119;52.516;13.508;2023-01-15T08:41:50;5.71;97.59
69823;SHT31;57119;52.516;13.508;2023-01-15T08:44:15;5.81;97.87
69823;SHT31;57119;52.516;13.508;2023-01-15T08:46:41;5.79;97.68
69823;SHT31;57119;52.516;13.508;2023-01-15T08:49:09;5.76;97.89
69823;SHT31;57119;52.516;13.508;2023-01-15T08:51:34;5.90;97.50
69823;SHT31;57119;52.516;13.508;2023-01-15T08:54:00;5.89;97.07
69823;SHT31;57119;52.516;13.508;2023-01-15T08:56:25;5.98;96.47
69823;SHT31;57119;52.516;13.508;2023-01-15T08:58:51;5.98;96.16
69823;SHT31;57119;52.516;13.508;2023-01-15T09:01:19;6.01;95.41
69823;SHT31;57119;52.516;13.508;2023-01-15T09:03:45;6.06;95.32
69823;SHT31;57119;52.516;13.508;2023-01-15T09:06:10;6.06;95.73
69823;SHT31;57119;52.516;13.508;2023-01-15T09:08:37;6.07;95.67
69823;SHT31;57119;52.516;13.508;2023-01-15T09:11:05;6.13;95.15
69823;SHT31;57119;52.516;13.508;2023-01-15T09:13:31;6.16;94.66
69823;SHT31;57119;52.516;13.508;2023-01-15T09:16:00;6.11;94.98
69823;SHT31;57119;52.516;13.508;2023-01-15T09:18:26;6.17;94.62
69823;SHT31;57119;52.516;13.508;2023-01-15T09:20:51;6.10;94.61
69823;SHT31;57119;52.516;13.508;2023-01-15T09:23:17;6.28;94.33
69823;SHT31;57119;52.516;13.508;2023-01-15T09:25:57;6.25;94.29
69823;SHT31;57119;52.516;13.508;2023-01-15T09:28:23;6.28;94.24
69823;SHT31;57119;52.516;13.508;2023-01-15T09:30:49;6.31;94.09
69823;SHT31;57119;52.516;13.508;2023-01-15T09:33:14;6.29;94.01
69823;SHT31;57119;52.516;13.508;2023-01-15T09:35:41;6.32;93.74
69823;SHT31;57119;52.516;13.508;2023-01-15T09:38:10;6.24;94.10
69823;SHT31;57119;52.516;13.508;2023-01-15T09:43:42;6.32;93.74
69823;SHT31;57119;52.516;13.508;2023-01-15T09:46:49;6.38;94.05
69823;SHT31;57119;52.516;13.508;2023-01-15T09:49:28;6.29;93.76
69823;SHT31;57119;52.516;13.508;2023-01-15T09:55:09;6.50;93.52
69823;SHT31;57119;52.516;13.508;2023-01-15T09:57:37;6.62;93.09
69823;SHT31;57119;52.516;13.508;2023-01-15T10:00:06;6.62;92.60
69823;SHT31;57119;52.516;13.508;2023-01-15T10:02:42;6.58;92.53
69823;SHT31;57119;52.516;13.508;2023-01-15T10:05:23;6.76;92.03
69823;SHT31;57119;52.516;13.508;2023-01-15T10:08:00;6.80;91.53
69823;SHT31;57119;52.516;13.508;2023-01-15T10:10:41;6.83;91.32
69823;SHT31;57119;52.516;13.508;2023-01-15T10:13:38;6.80;91.43
69823;SHT31;57119;52.516;13.508;2023-01-15T10:16:01;6.95;91.52
69823;SHT31;57119;52.516;13.508;2023-01-15T10:18:27;7.03;91.05
69823;SHT31;57119;52.516;13.508;2023-01-15T10:24:06;7.08;89.83
69823;SHT31;57119;52.516;13.508;2023-01-15T10:29:19;7.11;88.38
69823;SHT31;57119;52.516;13.508;2023-01-15T10:40:37;7.24;87.02
69823;SHT31;57119;52.516;13.508;2023-01-15T10:45:47;7.38;87.44
69823;SHT31;57119;52.516;13.508;2023-01-15T10:48:37;7.40;87.33
69823;SHT31;57119;52.516;13.508;2023-01-15T10:51:16;7.47;87.31
69823;SHT31;57119;52.516;13.508;2023-01-15T10:53:49;7.51;87.53
69823;SHT31;57119;52.516;13.508;2023-01-15T10:59:19;7.43;87.37
69823;SHT31;57119;52.516;13.508;2023-01-15T11:01:53;7.45;87.02
69823;SHT31;57119;52.516;13.508;2023-01-15T11:04:19;7.59;86.80
69823;SHT31;57119;52.516;13.508;2023-01-15T11:06:45;7.81;86.83
69823;SHT31;57119;52.516;13.508;2023-01-15T11:09:19;7.72;86.55
69823;SHT31;57119;52.516;13.508;2023-01-15T11:11:51;7.79;86.41
69823;SHT31;57119;52.516;13.508;2023-01-15T11:14:53;7.66;85.86
69823;SHT31;57119;52.516;13.508;2023-01-15T11:17:42;7.58;86.48
69823;SHT31;57119;52.516;13.508;2023-01-15T11:20:33;7.47;85.21
69823;SHT31;57119;52.516;13.508;2023-01-15T11:25:32;7.56;86.01
69823;SHT31;57119;52.516;13.508;2023-01-15T11:28:00;7.43;85.13
69823;SHT31;57119;52.516;13.508;2023-01-15T11:30:30;7.51;86.05
69823;SHT31;57119;52.516;13.508;2023-01-15T11:32:58;7.38;86.05
69823;SHT31;57119;52.516;13.508;2023-01-15T11:35:24;7.48;85.47
69823;SHT31;57119;52.516;13.508;2023-01-15T11:38:04;7.51;84.72
69823;SHT31;57119;52.516;13.508;2023-01-15T11:40:29;7.45;83.69
69823;SHT31;57119;52.516;13.508;2023-01-15T11:42:55;7.41;84.43
69823;SHT31;57119;52.516;13.508;2023-01-15T11:45:49;7.52;84.26
69823;SHT31;57119;52.516;13.508;2023-01-15T11:48:50;7.51;84.84
69823;SHT31;57119;52.516;13.508;2023-01-15T11:51:41;7.43;84.57
69823;SHT31;57119;52.516;13.508;2023-01-15T11:54:11;7.43;84.30
69823;SHT31;57119;52.516;13.508;2023-01-15T11:56:41;7.54;84.39
69823;SHT31;57119;52.516;13.508;2023-01-15T11:59:25;7.50;84.27
69823;SHT31;57119;52.516;13.508;2023-01-15T12:01:54;7.47;83.85
69823;SHT31;57119;52.516;13.508;2023-01-15T12:06:59;7.34;84.00
69823;SHT31;57119;52.516;13.508;2023-01-15T12:29:58;7.50;82.83
69823;SHT31;57119;52.516;13.508;2023-01-15T12:32:33;7.61;82.90
69823;SHT31;57119;52.516;13.508;2023-01-15T12:37:33;7.59;82.61
69823;SHT31;57119;52.516;13.508;2023-01-15T12:40:20;7.66;82.24
69823;SHT31;57119;52.516;13.508;2023-01-15T12:42:51;7.87;81.83
69823;SHT31;57119;52.516;13.508;2023-01-15T12:45:45;8.57;79.70
69823;SHT31;57119;52.516;13.508;2023-01-15T12:48:15;8.23;80.35
69823;SHT31;57119;52.516;13.508;2023-01-15T12:50:53;8.09;80.56
69823;SHT31;57119;52.516;13.508;2023-01-15T12:53:44;7.85;81.72
69823;SHT31;57119;52.516;13.508;2023-01-15T12:59:06;7.58;82.63
69823;SHT31;57119;52.516;13.508;2023-01-15T13:04:24;7.54;82.72
69823;SHT31;57119;52.516;13.508;2023-01-15T13:06:57;7.50;83.13
69823;SHT31;57119;52.516;13.508;2023-01-15T13:12:14;7.76;82.28
69823;SHT31;57119;52.516;13.508;2023-01-15T13:14:41;7.90;81.80
69823;SHT31;57119;52.516;13.508;2023-01-15T13:22:16;10.13;76.14
69823;SHT31;57119;52.516;13.508;2023-01-15T13:27:29;11.04;71.89
69823;SHT31;57119;52.516;13.508;2023-01-15T13:32:32;9.09;76.74
69823;SHT31;57119;52.516;13.508;2023-01-15T13:37:51;7.90;79.62
69823;SHT31;57119;52.516;13.508;2023-01-15T13:42:51;7.90;80.13
69823;SHT31;57119;52.516;13.508;2023-01-15T13:47:53;7.56;80.94
69823;SHT31;57119;52.516;13.508;2023-01-15T13:50:52;7.44;81.22
69823;SHT31;57119;52.516;13.508;2023-01-15T13:55:59;7.25;81.86
69823;SHT31;57119;52.516;13.508;2023-01-15T13:58:34;7.18;82.30
69823;SHT31;57119;52.516;13.508;2023-01-15T14:06:50;7.31;81.95
69823;SHT31;57119;52.516;13.508;2023-01-15T14:15:07;7.15;81.87
69823;SHT31;57119;52.516;13.508;2023-01-15T14:23:35;6.96;82.46
69823;SHT31;57119;52.516;13.508;2023-01-15T14:26:16;6.99;82.51
69823;SHT31;57119;52.516;13.508;2023-01-15T14:34:17;7.08;82.55
69823;SHT31;57119;52.516;13.508;2023-01-15T14:36:51;7.01;82.69
69823;SHT31;57119;52.516;13.508;2023-01-15T14:39:28;7.01;82.71
69823;SHT31;57119;52.516;13.508;2023-01-15T14:41:59;6.87;83.27
69823;SHT31;57119;52.516;13.508;2023-01-15T14:44:44;6.85;83.78
69823;SHT31;57119;52.516;13.508;2023-01-15T14:47:24;6.77;83.18
69823;SHT31;57119;52.516;13.508;2023-01-15T14:50:00;6.71;83.88
69823;SHT31;57119;52.516;13.508;2023-01-15T14:52:28;6.68;83.72
69823;SHT31;57119;52.516;13.508;2023-01-15T14:54:55;6.62;83.72
69823;SHT31;57119;52.516;13.508;2023-01-15T14:57:23;6.62;83.74
69823;SHT31;57119;52.516;13.508;2023-01-15T15:00:14;6.69;83.56
69823;SHT31;57119;52.516;13.508;2023-01-15T15:02:46;6.75;83.87
69823;SHT31;57119;52.516;13.508;2023-01-15T15:05:15;6.72;83.68
69823;SHT31;57119;52.516;13.508;2023-01-15T15:07:44;6.80;83.28
69823;SHT31;57119;52.516;13.508;2023-01-15T15:10:17;6.75;83.51
69823;SHT31;57119;52.516;13.508;2023-01-15T15:12:52;6.62;83.51
69823;SHT31;57119;52.516;13.508;2023-01-15T15:26:23;6.14;84.86
69823;SHT31;57119;52.516;13.508;2023-01-15T15:29:00;6.07;85.27
69823;SHT31;57119;52.516;13.508;2023-01-15T15:31:26;6.04;85.35
69823;SHT31;57119;52.516;13.508;2023-01-15T15:33:53;5.96;85.46
69823;SHT31;57119;52.516;13.508;2023-01-15T15:36:21;5.87;85.47
69823;SHT31;57119;52.516;13.508;2023-01-15T15:38:55;5.87;85.50
69823;SHT31;57119;52.516;13.508;2023-01-15T15:41:24;5.80;85.61
69823;SHT31;57119;52.516;13.508;2023-01-15T15:44:17;5.80;85.76
69823;SHT31;57119;52.516;13.508;2023-01-15T15:47:17;5.77;85.60
69823;SHT31;57119;52.516;13.508;2023-01-15T15:50:02;5.67;86.03
69823;SHT31;57119;52.516;13.508;2023-01-15T15:52:27;5.66;85.83
69823;SHT31;57119;52.516;13.508;2023-01-15T15:55:02;5.66;85.87
69823;SHT31;57119;52.516;13.508;2023-01-15T15:57:32;5.63;85.55
69823;SHT31;57119;52.516;13.508;2023-01-15T15:59:59;5.62;85.87
69823;SHT31;57119;52.516;13.508;2023-01-15T16:02:38;5.59;85.64
69823;SHT31;57119;52.516;13.508;2023-01-15T16:07:44;5.56;85.84
69823;SHT31;57119;52.516;13.508;2023-01-15T16:12:51;5.50;85.45
69823;SHT31;57119;52.516;13.508;2023-01-15T16:15:26;5.48;85.62
69823;SHT31;57119;52.516;13.508;2023-01-15T16:17:59;5.42;85.97
69823;SHT31;57119;52.516;13.508;2023-01-15T16:20:25;5.39;86.05
69823;SHT31;57119;52.516;13.508;2023-01-15T16:22:56;5.32;86.47
69823;SHT31;57119;52.516;13.508;2023-01-15T16:25:41;5.28;86.60
69823;SHT31;57119;52.516;13.508;2023-01-15T16:28:25;5.34;86.39
69823;SHT31;57119;52.516;13.508;2023-01-15T16:30:58;5.34;86.35
69823;SHT31;57119;52.516;13.508;2023-01-15T16:33:24;5.24;86.68
69823;SHT31;57119;52.516;13.508;2023-01-15T16:35:58;5.20;86.81
69823;SHT31;57119;52.516;13.508;2023-01-15T16:38:24;5.22;86.74
69823;SHT31;57119;52.516;13.508;2023-01-15T16:40:50;5.21;86.64
69823;SHT31;57119;52.516;13.508;2023-01-15T16:43:18;5.21;86.58
69823;SHT31;57119;52.516;13.508;2023-01-15T16:48:24;5.25;86.32
69823;SHT31;57119;52.516;13.508;2023-01-15T16:50:51;5.27;86.03
69823;SHT31;57119;52.516;13.508;2023-01-15T16:55:54;5.25;86.08
69823;SHT31;57119;52.516;13.508;2023-01-15T16:58:34;5.22;85.80
69823;SHT31;57119;52.516;13.508;2023-01-15T17:01:01;5.17;86.05
69823;SHT31;57119;52.516;13.508;2023-01-15T17:03:46;5.20;85.77
69823;SHT31;57119;52.516;13.508;2023-01-15T17:06:12;5.24;85.53
69823;SHT31;57119;52.516;13.508;2023-01-15T17:08:46;5.22;85.75
69823;SHT31;57119;52.516;13.508;2023-01-15T17:11:30;5.28;85.34
69823;SHT31;57119;52.516;13.508;2023-01-15T17:14:08;5.22;85.56
69823;SHT31;57119;52.516;13.508;2023-01-15T17:16:34;5.24;85.36
69823;SHT31;57119;52.516;13.508;2023-01-15T17:19:04;5.22;85.38
69823;SHT31;57119;52.516;13.508;2023-01-15T17:21:29;5.17;85.44
69823;SHT31;57119;52.516;13.508;2023-01-15T17:23:56;5.22;85.43
69823;SHT31;57119;52.516;13.508;2023-01-15T17:26:24;5.21;85.46
69823;SHT31;57119;52.516;13.508;2023-01-15T17:28:51;5.20;85.33
69823;SHT31;57119;52.516;13.508;2023-01-15T17:31:28;5.25;85.07
69823;SHT31;57119;52.516;13.508;2023-01-15T17:33:55;5.20;85.32
69823;SHT31;57119;52.516;13.508;2023-01-15T17:36:22;5.17;85.29
69823;SHT31;57119;52.516;13.508;2023-01-15T17:38:47;5.21;85.02
69823;SHT31;57119;52.516;13.508;2023-01-15T17:41:15;5.29;84.67
69823;SHT31;57119;52.516;13.508;2023-01-15T17:43:40;5.36;84.43
69823;SHT31;57119;52.516;13.508;2023-01-15T17:46:07;5.35;84.39
69823;SHT31;57119;52.516;13.508;2023-01-15T17:48:32;5.28;84.68
69823;SHT31;57119;52.516;13.508;2023-01-15T17:50:59;5.28;84.49
69823;SHT31;57119;52.516;13.508;2023-01-15T17:53:25;5.25;84.54
69823;SHT31;57119;52.516;13.508;2023-01-15T17:55:50;5.31;84.28
69823;SHT31;57119;52.516;13.508;2023-01-15T17:58:34;5.36;83.85
69823;SHT31;57119;52.516;13.508;2023-01-15T18:01:20;5.34;83.97
69823;SHT31;57119;52.516;13.508;2023-01-15T18:04:13;5.35;83.80
69823;SHT31;57119;52.516;13.508;2023-01-15T18:06:57;5.28;84.06
69823;SHT31;57119;52.516;13.508;2023-01-15T18:09:26;5.31;84.00
69823;SHT31;57119;52.516;13.508;2023-01-15T18:11:52;5.35;83.48
69823;SHT31;57119;52.516;13.508;2023-01-15T18:14:17;5.39;83.38
69823;SHT31;57119;52.516;13.508;2023-01-15T18:16:43;5.39;83.58
69823;SHT31;57119;52.516;13.508;2023-01-15T18:19:08;5.35;83.34